Terminal Aerodrome Forecast
Issued by NWS Mt. Holly, NJ

Home | Current Version | Previous Version | Text Only | Print | Product List | Glossary On
Versions: 1 2 3 4 5 6 7 8 9 10 11 12 13 14 15 16
000
FTUS41 KPHI 211300 AAA
TAFILG
TAF AMD
KILG 211322Z 2113/2212 00000KT P6SM OVC012
      TEMPO 2114/2116 SCT012 BKN050
     FM211600 18007KT P6SM SCT050
     FM211800 18008KT P6SM VCSH SCT040 BKN100
     FM212100 17008KT 6SM -SHRA BKN040 BKN100
     FM220000 15007KT 6SM SHRA SCT025 BKN040
      TEMPO 2202/2205 5SM SHRA BKN025
     FM220800 08003KT 5SM BR BKN025=

USA.gov is the U.S. government's official web portal to all federal, state and local government web resources and services.